sensor_id;sensor_type;location;lat;lon;timestamp;temperature;humidity
1716;DHT22;855;48.824;9.220;2022-08-07T00:02:23;17.80;68.60
1716;DHT22;855;48.824;9.220;2022-08-07T00:04:52;17.70;68.90
1716;DHT22;855;48.824;9.220;2022-08-07T00:07:19;17.70;69.30
1716;DHT22;855;48.824;9.220;2022-08-07T00:09:45;17.60;69.30
1716;DHT22;855;48.824;9.220;2022-08-07T00:12:12;17.60;69.80
1716;DHT22;855;48.824;9.220;2022-08-07T00:14:39;17.60;70.50
1716;DHT22;855;48.824;9.220;2022-08-07T00:17:06;17.60;70.20
1716;DHT22;855;48.824;9.220;2022-08-07T00:19:33;17.60;69.80
1716;DHT22;855;48.824;9.220;2022-08-07T00:22:01;17.60;70.80
1716;DHT22;855;48.824;9.220;2022-08-07T00:24:28;17.70;70.50
1716;DHT22;855;48.824;9.220;2022-08-07T00:26:55;17.70;70.50
1716;DHT22;855;48.824;9.220;2022-08-07T00:29:22;17.80;69.80
1716;DHT22;855;48.824;9.220;2022-08-07T00:31:51;17.90;68.40
1716;DHT22;855;48.824;9.220;2022-08-07T00:34:18;17.90;68.20
1716;DHT22;855;48.824;9.220;2022-08-07T00:36:45;18.00;68.10
1716;DHT22;855;48.824;9.220;2022-08-07T00:39:13;18.00;68.10
1716;DHT22;855;48.824;9.220;2022-08-07T00:41:47;17.90;68.90
1716;DHT22;855;48.824;9.220;2022-08-07T00:44:14;17.90;68.90
1716;DHT22;855;48.824;9.220;2022-08-07T00:46:41;18.00;69.00
1716;DHT22;855;48.824;9.220;2022-08-07T00:49:08;17.90;69.60
1716;DHT22;855;48.824;9.220;2022-08-07T00:51:35;18.00;69.00
1716;DHT22;855;48.824;9.220;2022-08-07T00:54:02;18.00;68.40
1716;DHT22;855;48.824;9.220;2022-08-07T00:56:30;18.00;68.50
1716;DHT22;855;48.824;9.220;2022-08-07T00:58:57;18.00;68.10
1716;DHT22;855;48.824;9.220;2022-08-07T01:01:24;17.90;68.40
1716;DHT22;855;48.824;9.220;2022-08-07T01:03:51;17.90;68.80
1716;DHT22;855;48.824;9.220;2022-08-07T01:06:19;17.90;68.50
1716;DHT22;855;48.824;9.220;2022-08-07T01:08:46;17.90;68.60
1716;DHT22;855;48.824;9.220;2022-08-07T01:11:13;17.80;69.20
1716;DHT22;855;48.824;9.220;2022-08-07T01:13:42;17.60;71.60
1716;DHT22;855;48.824;9.220;2022-08-07T01:16:09;17.70;71.80
1716;DHT22;855;48.824;9.220;2022-08-07T01:18:36;17.70;71.90
1716;DHT22;855;48.824;9.220;2022-08-07T01:21:09;17.60;73.40
1716;DHT22;855;48.824;9.220;2022-08-07T01:23:36;17.50;74.30
1716;DHT22;855;48.824;9.220;2022-08-07T01:26:04;17.40;74.30
1716;DHT22;855;48.824;9.220;2022-08-07T01:28:32;17.30;74.70
1716;DHT22;855;48.824;9.220;2022-08-07T01:31:00;17.30;75.30
1716;DHT22;855;48.824;9.220;2022-08-07T01:33:28;17.20;75.90
1716;DHT22;855;48.824;9.220;2022-08-07T01:35:55;17.10;76.00
1716;DHT22;855;48.824;9.220;2022-08-07T01:38:25;17.10;76.00
1716;DHT22;855;48.824;9.220;2022-08-07T01:40:53;17.10;76.00
1716;DHT22;855;48.824;9.220;2022-08-07T01:43:20;17.20;75.60
1716;DHT22;855;48.824;9.220;2022-08-07T01:45:47;17.10;75.60
1716;DHT22;855;48.824;9.220;2022-08-07T01:48:15;17.20;75.60
1716;DHT22;855;48.824;9.220;2022-08-07T01:50:45;17.20;75.30
1716;DHT22;855;48.824;9.220;2022-08-07T01:53:13;17.20;75.00
1716;DHT22;855;48.824;9.220;2022-08-07T01:55:45;17.20;74.10
1716;DHT22;855;48.824;9.220;2022-08-07T01:58:15;17.00;73.80
1716;DHT22;855;48.824;9.220;2022-08-07T02:00:46;16.90;74.30
1716;DHT22;855;48.824;9.220;2022-08-07T02:03:15;16.90;74.90
1716;DHT22;855;48.824;9.220;2022-08-07T02:05:45;16.90;74.90
1716;DHT22;855;48.824;9.220;2022-08-07T02:08:16;17.00;74.90
1716;DHT22;855;48.824;9.220;2022-08-07T02:10:47;17.20;74.60
1716;DHT22;855;48.824;9.220;2022-08-07T02:13:19;17.30;74.20
1716;DHT22;855;48.824;9.220;2022-08-07T02:15:48;17.30;74.20
1716;DHT22;855;48.824;9.220;2022-08-07T02:18:17;17.20;75.00
1716;DHT22;855;48.824;9.220;2022-08-07T02:20:46;17.10;76.00
1716;DHT22;855;48.824;9.220;2022-08-07T02:23:15;16.90;77.20
1716;DHT22;855;48.824;9.220;2022-08-07T02:25:44;16.90;77.50
1716;DHT22;855;48.824;9.220;2022-08-07T02:28:14;16.90;76.70
1716;DHT22;855;48.824;9.220;2022-08-07T02:30:42;16.90;75.90
1716;DHT22;855;48.824;9.220;2022-08-07T02:33:10;17.00;75.60
1716;DHT22;855;48.824;9.220;2022-08-07T02:35:38;17.00;75.90
1716;DHT22;855;48.824;9.220;2022-08-07T02:38:07;17.00;75.60
1716;DHT22;855;48.824;9.220;2022-08-07T02:40:36;17.00;75.80
1716;DHT22;855;48.824;9.220;2022-08-07T02:43:05;17.00;75.80
1716;DHT22;855;48.824;9.220;2022-08-07T02:45:36;17.00;76.20
1716;DHT22;855;48.824;9.220;2022-08-07T02:48:04;17.00;75.80
1716;DHT22;855;48.824;9.220;2022-08-07T02:50:33;16.90;75.90
1716;DHT22;855;48.824;9.220;2022-08-07T02:53:02;16.60;76.70
1716;DHT22;855;48.824;9.220;2022-08-07T02:55:30;16.50;77.60
1716;DHT22;855;48.824;9.220;2022-08-07T02:58:02;16.40;78.30
1716;DHT22;855;48.824;9.220;2022-08-07T03:00:33;16.40;78.40
1716;DHT22;855;48.824;9.220;2022-08-07T03:03:00;16.40;78.40
1716;DHT22;855;48.824;9.220;2022-08-07T03:05:28;16.40;78.00
1716;DHT22;855;48.824;9.220;2022-08-07T03:07:55;16.40;78.30
1716;DHT22;855;48.824;9.220;2022-08-07T03:10:22;16.50;78.40
1716;DHT22;855;48.824;9.220;2022-08-07T03:12:50;16.50;78.20
1716;DHT22;855;48.824;9.220;2022-08-07T03:15:18;16.50;77.60
1716;DHT22;855;48.824;9.220;2022-08-07T03:17:48;16.40;77.40
1716;DHT22;855;48.824;9.220;2022-08-07T03:20:15;16.30;78.20
1716;DHT22;855;48.824;9.220;2022-08-07T03:22:43;16.20;78.70
1716;DHT22;855;48.824;9.220;2022-08-07T03:25:10;16.20;78.60
1716;DHT22;855;48.824;9.220;2022-08-07T03:27:37;16.20;79.00
1716;DHT22;855;48.824;9.220;2022-08-07T03:30:06;16.20;79.30
1716;DHT22;855;48.824;9.220;2022-08-07T03:32:35;16.20;79.60
1716;DHT22;855;48.824;9.220;2022-08-07T03:35:06;16.10;80.30
1716;DHT22;855;48.824;9.220;2022-08-07T03:37:35;16.00;81.30
1716;DHT22;855;48.824;9.220;2022-08-07T03:40:04;16.00;81.50
1716;DHT22;855;48.824;9.220;2022-08-07T03:42:32;16.00;81.20
1716;DHT22;855;48.824;9.220;2022-08-07T03:45:00;15.90;80.80
1716;DHT22;855;48.824;9.220;2022-08-07T03:47:27;15.90;80.80
1716;DHT22;855;48.824;9.220;2022-08-07T03:49:56;15.90;81.20
1716;DHT22;855;48.824;9.220;2022-08-07T03:52:26;16.00;80.40
1716;DHT22;855;48.824;9.220;2022-08-07T03:54:53;16.10;80.30
1716;DHT22;855;48.824;9.220;2022-08-07T03:57:23;16.10;80.00
1716;DHT22;855;48.824;9.220;2022-08-07T03:59:51;16.20;79.90
1716;DHT22;855;48.824;9.220;2022-08-07T04:02:18;16.30;79.20
1716;DHT22;855;48.824;9.220;2022-08-07T04:04:45;16.30;79.00
1716;DHT22;855;48.824;9.220;2022-08-07T04:07:14;16.30;79.10
1716;DHT22;855;48.824;9.220;2022-08-07T04:09:43;16.40;79.10
1716;DHT22;855;48.824;9.220;2022-08-07T04:12:11;16.50;79.10
1716;DHT22;855;48.824;9.220;2022-08-07T04:14:38;16.60;79.10
1716;DHT22;855;48.824;9.220;2022-08-07T04:17:06;16.70;78.30
1716;DHT22;855;48.824;9.220;2022-08-07T04:19:33;16.70;77.90
1716;DHT22;855;48.824;9.220;2022-08-07T04:22:00;16.80;77.10
1716;DHT22;855;48.824;9.220;2022-08-07T04:24:27;16.90;76.80
1716;DHT22;855;48.824;9.220;2022-08-07T04:26:56;16.70;76.70
1716;DHT22;855;48.824;9.220;2022-08-07T04:29:24;16.50;77.90
1716;DHT22;855;48.824;9.220;2022-08-07T04:31:51;16.40;78.70
1716;DHT22;855;48.824;9.220;2022-08-07T04:34:20;16.40;79.60
1716;DHT22;855;48.824;9.220;2022-08-07T04:36:47;16.50;79.20
1716;DHT22;855;48.824;9.220;2022-08-07T04:39:14;16.60;78.60
1716;DHT22;855;48.824;9.220;2022-08-07T04:41:41;16.80;77.40
1716;DHT22;855;48.824;9.220;2022-08-07T04:44:09;16.80;77.00
1716;DHT22;855;48.824;9.220;2022-08-07T04:46:41;16.90;76.60
1716;DHT22;855;48.824;9.220;2022-08-07T04:49:13;16.70;75.80
1716;DHT22;855;48.824;9.220;2022-08-07T04:51:50;16.80;76.60
1716;DHT22;855;48.824;9.220;2022-08-07T04:54:21;16.90;75.40
1716;DHT22;855;48.824;9.220;2022-08-07T04:56:54;17.00;75.80
1716;DHT22;855;48.824;9.220;2022-08-07T04:59:29;17.20;75.00
1716;DHT22;855;48.824;9.220;2022-08-07T05:02:03;17.50;74.30
1716;DHT22;855;48.824;9.220;2022-08-07T05:04:34;18.00;71.30
1716;DHT22;855;48.824;9.220;2022-08-07T05:07:09;18.40;69.70
1716;DHT22;855;48.824;9.220;2022-08-07T05:09:43;18.80;68.40
1716;DHT22;855;48.824;9.220;2022-08-07T05:12:15;19.30;65.60
1716;DHT22;855;48.824;9.220;2022-08-07T05:14:45;19.80;62.60
1716;DHT22;855;48.824;9.220;2022-08-07T05:17:16;20.20;61.00
1716;DHT22;855;48.824;9.220;2022-08-07T05:19:46;20.50;59.80
1716;DHT22;855;48.824;9.220;2022-08-07T05:22:15;20.80;58.20
1716;DHT22;855;48.824;9.220;2022-08-07T05:24:44;21.00;56.70
1716;DHT22;855;48.824;9.220;2022-08-07T05:27:13;21.10;55.50
1716;DHT22;855;48.824;9.220;2022-08-07T05:29:43;21.10;55.90
1716;DHT22;855;48.824;9.220;2022-08-07T05:32:11;21.40;55.80
1716;DHT22;855;48.824;9.220;2022-08-07T05:34:39;21.60;54.90
1716;DHT22;855;48.824;9.220;2022-08-07T05:37:07;21.90;54.40
1716;DHT22;855;48.824;9.220;2022-08-07T05:39:35;22.10;53.70
1716;DHT22;855;48.824;9.220;2022-08-07T05:42:03;22.20;52.90
1716;DHT22;855;48.824;9.220;2022-08-07T05:44:33;22.20;52.70
1716;DHT22;855;48.824;9.220;2022-08-07T05:47:02;22.30;52.60
1716;DHT22;855;48.824;9.220;2022-08-07T05:49:30;22.50;53.40
1716;DHT22;855;48.824;9.220;2022-08-07T05:51:58;22.60;51.90
1716;DHT22;855;48.824;9.220;2022-08-07T05:54:25;22.70;51.70
1716;DHT22;855;48.824;9.220;2022-08-07T05:56:53;22.60;52.10
1716;DHT22;855;48.824;9.220;2022-08-07T05:59:21;22.20;52.40
1716;DHT22;855;48.824;9.220;2022-08-07T06:01:49;21.90;53.70
1716;DHT22;855;48.824;9.220;2022-08-07T06:04:19;21.80;54.00
1716;DHT22;855;48.824;9.220;2022-08-07T06:06:47;21.60;55.30
1716;DHT22;855;48.824;9.220;2022-08-07T06:09:14;21.50;55.70
1716;DHT22;855;48.824;9.220;2022-08-07T06:11:42;21.30;56.50
1716;DHT22;855;48.824;9.220;2022-08-07T06:14:09;21.30;57.30
1716;DHT22;855;48.824;9.220;2022-08-07T06:16:38;21.20;57.70
1716;DHT22;855;48.824;9.220;2022-08-07T06:19:05;21.50;57.40
1716;DHT22;855;48.824;9.220;2022-08-07T06:21:35;21.60;56.70
1716;DHT22;855;48.824;9.220;2022-08-07T06:24:03;21.80;56.30
1716;DHT22;855;48.824;9.220;2022-08-07T06:26:30;21.90;56.20
1716;DHT22;855;48.824;9.220;2022-08-07T06:28:57;22.10;55.50
1716;DHT22;855;48.824;9.220;2022-08-07T06:31:25;22.10;55.40
1716;DHT22;855;48.824;9.220;2022-08-07T06:33:52;22.20;55.90
1716;DHT22;855;48.824;9.220;2022-08-07T06:36:19;22.10;55.80
1716;DHT22;855;48.824;9.220;2022-08-07T06:38:47;21.90;56.90
1716;DHT22;855;48.824;9.220;2022-08-07T06:41:17;21.90;57.50
1716;DHT22;855;48.824;9.220;2022-08-07T06:43:47;22.00;57.50
1716;DHT22;855;48.824;9.220;2022-08-07T06:46:15;22.00;57.50
1716;DHT22;855;48.824;9.220;2022-08-07T06:48:42;22.10;57.30
1716;DHT22;855;48.824;9.220;2022-08-07T06:51:14;22.30;57.40
1716;DHT22;855;48.824;9.220;2022-08-07T06:53:42;22.50;57.40
1716;DHT22;855;48.824;9.220;2022-08-07T06:56:13;22.80;57.70
1716;DHT22;855;48.824;9.220;2022-08-07T06:58:43;23.00;57.40
1716;DHT22;855;48.824;9.220;2022-08-07T07:01:12;23.20;58.20
1716;DHT22;855;48.824;9.220;2022-08-07T07:03:41;23.30;58.70
1716;DHT22;855;48.824;9.220;2022-08-07T07:06:08;23.30;59.80
1716;DHT22;855;48.824;9.220;2022-08-07T07:08:35;22.80;60.80
1716;DHT22;855;48.824;9.220;2022-08-07T07:11:03;22.70;61.90
1716;DHT22;855;48.824;9.220;2022-08-07T07:13:35;22.60;61.80
1716;DHT22;855;48.824;9.220;2022-08-07T07:16:07;22.50;62.60
1716;DHT22;855;48.824;9.220;2022-08-07T07:18:39;22.70;61.60
1716;DHT22;855;48.824;9.220;2022-08-07T07:21:11;22.90;61.10
1716;DHT22;855;48.824;9.220;2022-08-07T07:23:38;23.00;60.70
1716;DHT22;855;48.824;9.220;2022-08-07T07:26:10;23.10;60.20
1716;DHT22;855;48.824;9.220;2022-08-07T07:28:44;23.10;60.10
1716;DHT22;855;48.824;9.220;2022-08-07T07:31:17;23.00;60.30
1716;DHT22;855;48.824;9.220;2022-08-07T07:33:47;23.00;59.80
1716;DHT22;855;48.824;9.220;2022-08-07T07:36:17;23.10;58.70
1716;DHT22;855;48.824;9.220;2022-08-07T07:38:44;22.70;59.20
1716;DHT22;855;48.824;9.220;2022-08-07T07:41:12;22.60;59.90
1716;DHT22;855;48.824;9.220;2022-08-07T07:43:45;22.80;59.70
1716;DHT22;855;48.824;9.220;2022-08-07T07:46:13;22.80;59.50
1716;DHT22;855;48.824;9.220;2022-08-07T07:48:41;22.80;58.50
1716;DHT22;855;48.824;9.220;2022-08-07T07:51:08;23.00;58.20
1716;DHT22;855;48.824;9.220;2022-08-07T07:53:38;23.20;56.90
1716;DHT22;855;48.824;9.220;2022-08-07T07:56:07;23.10;54.80
1716;DHT22;855;48.824;9.220;2022-08-07T07:58:36;23.10;55.20
1716;DHT22;855;48.824;9.220;2022-08-07T08:01:06;23.40;54.00
1716;DHT22;855;48.824;9.220;2022-08-07T08:03:35;23.70;53.40
1716;DHT22;855;48.824;9.220;2022-08-07T08:06:03;23.70;53.60
1716;DHT22;855;48.824;9.220;2022-08-07T08:08:33;24.00;53.20
1716;DHT22;855;48.824;9.220;2022-08-07T08:11:00;24.20;51.80
1716;DHT22;855;48.824;9.220;2022-08-07T08:13:29;24.30;50.20
1716;DHT22;855;48.824;9.220;2022-08-07T08:16:00;24.50;50.40
1716;DHT22;855;48.824;9.220;2022-08-07T08:18:29;24.50;50.60
1716;DHT22;855;48.824;9.220;2022-08-07T08:21:00;24.40;50.30
1716;DHT22;855;48.824;9.220;2022-08-07T08:23:29;24.30;51.20
1716;DHT22;855;48.824;9.220;2022-08-07T08:26:15;24.50;49.60
1716;DHT22;855;48.824;9.220;2022-08-07T08:29:02;24.50;49.30
1716;DHT22;855;48.824;9.220;2022-08-07T08:31:32;24.60;49.30
1716;DHT22;855;48.824;9.220;2022-08-07T08:34:03;24.50;48.30
1716;DHT22;855;48.824;9.220;2022-08-07T08:36:33;24.60;48.10
1716;DHT22;855;48.824;9.220;2022-08-07T08:39:01;24.70;47.70
1716;DHT22;855;48.824;9.220;2022-08-07T08:41:36;25.00;47.20
1716;DHT22;855;48.824;9.220;2022-08-07T08:44:11;24.90;47.30
1716;DHT22;855;48.824;9.220;2022-08-07T08:46:45;24.90;45.80
1716;DHT22;855;48.824;9.220;2022-08-07T08:49:20;25.00;45.20
1716;DHT22;855;48.824;9.220;2022-08-07T08:51:55;24.90;43.60
1716;DHT22;855;48.824;9.220;2022-08-07T08:54:28;25.00;43.10
1716;DHT22;855;48.824;9.220;2022-08-07T08:56:58;25.10;43.00
1716;DHT22;855;48.824;9.220;2022-08-07T08:59:32;24.90;42.80
1716;DHT22;855;48.824;9.220;2022-08-07T09:02:07;24.80;43.60
1716;DHT22;855;48.824;9.220;2022-08-07T09:04:43;24.90;43.30
1716;DHT22;855;48.824;9.220;2022-08-07T09:07:16;24.90;43.10
1716;DHT22;855;48.824;9.220;2022-08-07T09:09:54;25.00;43.20
1716;DHT22;855;48.824;9.220;2022-08-07T09:12:36;25.00;42.80
1716;DHT22;855;48.824;9.220;2022-08-07T09:15:27;25.10;43.60
1716;DHT22;855;48.824;9.220;2022-08-07T09:18:08;25.20;40.60
1716;DHT22;855;48.824;9.220;2022-08-07T09:20:47;25.00;40.90
1716;DHT22;855;48.824;9.220;2022-08-07T09:23:26;24.70;42.10
1716;DHT22;855;48.824;9.220;2022-08-07T09:26:04;24.80;41.40
1716;DHT22;855;48.824;9.220;2022-08-07T09:28:38;24.70;40.40
1716;DHT22;855;48.824;9.220;2022-08-07T09:31:09;24.70;41.50
1716;DHT22;855;48.824;9.220;2022-08-07T09:33:51;24.90;39.90
1716;DHT22;855;48.824;9.220;2022-08-07T09:36:27;24.80;40.20
1716;DHT22;855;48.824;9.220;2022-08-07T09:39:01;24.80;40.10
1716;DHT22;855;48.824;9.220;2022-08-07T09:41:34;25.10;40.10
1716;DHT22;855;48.824;9.220;2022-08-07T09:44:07;25.00;39.40
1716;DHT22;855;48.824;9.220;2022-08-07T09:46:48;25.10;38.60
1716;DHT22;855;48.824;9.220;2022-08-07T09:49:28;25.20;38.50
1716;DHT22;855;48.824;9.220;2022-08-07T09:52:05;25.50;38.70
1716;DHT22;855;48.824;9.220;2022-08-07T09:54:40;25.50;39.20
1716;DHT22;855;48.824;9.220;2022-08-07T09:57:36;25.70;38.70
1716;DHT22;855;48.824;9.220;2022-08-07T10:00:09;25.60;37.90
1716;DHT22;855;48.824;9.220;2022-08-07T10:03:06;25.60;37.70
1716;DHT22;855;48.824;9.220;2022-08-07T10:11:59;25.90;39.10
1716;DHT22;855;48.824;9.220;2022-08-07T10:17:41;26.20;37.40
1716;DHT22;855;48.824;9.220;2022-08-07T10:20:18;26.30;37.40
1716;DHT22;855;48.824;9.220;2022-08-07T10:22:58;26.40;37.20
1716;DHT22;855;48.824;9.220;2022-08-07T10:25:38;26.60;36.20
1716;DHT22;855;48.824;9.220;2022-08-07T10:28:38;26.80;35.10
1716;DHT22;855;48.824;9.220;2022-08-07T10:31:20;26.70;35.10
1716;DHT22;855;48.824;9.220;2022-08-07T10:34:07;26.60;35.50
1716;DHT22;855;48.824;9.220;2022-08-07T10:36:51;26.50;34.90
1716;DHT22;855;48.824;9.220;2022-08-07T10:39:32;26.50;35.70
1716;DHT22;855;48.824;9.220;2022-08-07T10:42:13;26.40;35.50
1716;DHT22;855;48.824;9.220;2022-08-07T10:44:51;26.30;36.10
1716;DHT22;855;48.824;9.220;2022-08-07T10:47:28;26.40;36.50
1716;DHT22;855;48.824;9.220;2022-08-07T10:50:02;26.10;36.20
1716;DHT22;855;48.824;9.220;2022-08-07T10:52:33;26.20;35.90
1716;DHT22;855;48.824;9.220;2022-08-07T10:55:10;26.30;36.00
1716;DHT22;855;48.824;9.220;2022-08-07T10:57:47;26.50;35.70
1716;DHT22;855;48.824;9.220;2022-08-07T11:00:18;26.80;35.00
1716;DHT22;855;48.824;9.220;2022-08-07T11:02:49;26.80;35.30
1716;DHT22;855;48.824;9.220;2022-08-07T11:05:31;27.00;35.40
1716;DHT22;855;48.824;9.220;2022-08-07T11:08:07;27.00;34.30
1716;DHT22;855;48.824;9.220;2022-08-07T11:10:39;26.80;35.30
1716;DHT22;855;48.824;9.220;2022-08-07T11:13:13;26.90;36.20
1716;DHT22;855;48.824;9.220;2022-08-07T11:15:45;27.20;35.10
1716;DHT22;855;48.824;9.220;2022-08-07T11:18:17;27.20;34.80
1716;DHT22;855;48.824;9.220;2022-08-07T11:20:51;27.40;34.80
1716;DHT22;855;48.824;9.220;2022-08-07T11:23:25;27.50;33.90
1716;DHT22;855;48.824;9.220;2022-08-07T11:26:03;27.40;34.30
1716;DHT22;855;48.824;9.220;2022-08-07T11:28:35;27.30;35.70
1716;DHT22;855;48.824;9.220;2022-08-07T11:31:12;27.60;35.10
1716;DHT22;855;48.824;9.220;2022-08-07T11:33:46;27.70;35.30
1716;DHT22;855;48.824;9.220;2022-08-07T11:36:29;27.80;35.00
1716;DHT22;855;48.824;9.220;2022-08-07T11:39:08;27.90;35.40
1716;DHT22;855;48.824;9.220;2022-08-07T11:41:41;28.10;35.10
1716;DHT22;855;48.824;9.220;2022-08-07T11:44:16;28.10;35.10
1716;DHT22;855;48.824;9.220;2022-08-07T11:46:55;28.20;34.60
1716;DHT22;855;48.824;9.220;2022-08-07T11:49:41;28.40;35.50
1716;DHT22;855;48.824;9.220;2022-08-07T11:52:26;28.60;33.90
1716;DHT22;855;48.824;9.220;2022-08-07T11:55:03;28.70;33.90
1716;DHT22;855;48.824;9.220;2022-08-07T11:57:40;28.70;33.30
1716;DHT22;855;48.824;9.220;2022-08-07T12:00:10;28.70;33.40
1716;DHT22;855;48.824;9.220;2022-08-07T12:05:44;28.80;32.90
1716;DHT22;855;48.824;9.220;2022-08-07T12:08:17;28.90;33.60
1716;DHT22;855;48.824;9.220;2022-08-07T12:10:48;29.10;33.10
1716;DHT22;855;48.824;9.220;2022-08-07T12:13:22;29.20;33.00
1716;DHT22;855;48.824;9.220;2022-08-07T12:15:52;28.70;32.90
1716;DHT22;855;48.824;9.220;2022-08-07T12:18:26;28.30;32.90
1716;DHT22;855;48.824;9.220;2022-08-07T12:21:04;27.90;33.50
1716;DHT22;855;48.824;9.220;2022-08-07T12:23:45;27.70;33.90
1716;DHT22;855;48.824;9.220;2022-08-07T12:26:24;28.00;33.90
1716;DHT22;855;48.824;9.220;2022-08-07T12:29:02;28.10;33.50
1716;DHT22;855;48.824;9.220;2022-08-07T12:31:36;28.40;34.10
1716;DHT22;855;48.824;9.220;2022-08-07T12:34:06;28.40;33.80
1716;DHT22;855;48.824;9.220;2022-08-07T12:36:34;28.70;32.80
1716;DHT22;855;48.824;9.220;2022-08-07T12:39:03;28.50;32.00
1716;DHT22;855;48.824;9.220;2022-08-07T12:41:33;28.10;32.80
1716;DHT22;855;48.824;9.220;2022-08-07T12:44:04;28.10;32.90
1716;DHT22;855;48.824;9.220;2022-08-07T12:46:42;28.40;33.10
1716;DHT22;855;48.824;9.220;2022-08-07T12:49:22;28.10;33.50
1716;DHT22;855;48.824;9.220;2022-08-07T12:51:57;28.20;33.90
1716;DHT22;855;48.824;9.220;2022-08-07T12:54:32;28.50;33.40
1716;DHT22;855;48.824;9.220;2022-08-07T12:57:05;28.50;33.10
1716;DHT22;855;48.824;9.220;2022-08-07T12:59:34;28.50;33.00
1716;DHT22;855;48.824;9.220;2022-08-07T13:02:14;28.50;33.50
1716;DHT22;855;48.824;9.220;2022-08-07T13:05:02;28.70;33.40
1716;DHT22;855;48.824;9.220;2022-08-07T13:08:01;28.80;32.90
1716;DHT22;855;48.824;9.220;2022-08-07T13:10:40;29.00;32.30
1716;DHT22;855;48.824;9.220;2022-08-07T13:13:23;28.60;32.80
1716;DHT22;855;48.824;9.220;2022-08-07T13:15:59;28.70;32.80
1716;DHT22;855;48.824;9.220;2022-08-07T13:18:38;29.00;33.00
1716;DHT22;855;48.824;9.220;2022-08-07T13:21:13;29.30;32.50
1716;DHT22;855;48.824;9.220;2022-08-07T13:23:47;29.50;33.10
1716;DHT22;855;48.824;9.220;2022-08-07T13:26:21;29.30;31.90
1716;DHT22;855;48.824;9.220;2022-08-07T13:28:58;28.90;32.80
1716;DHT22;855;48.824;9.220;2022-08-07T13:31:30;28.80;32.80
1716;DHT22;855;48.824;9.220;2022-08-07T13:34:04;28.90;33.40
1716;DHT22;855;48.824;9.220;2022-08-07T13:36:41;29.10;32.90
1716;DHT22;855;48.824;9.220;2022-08-07T13:39:16;29.20;32.50
1716;DHT22;855;48.824;9.220;2022-08-07T13:41:47;28.90;33.10
1716;DHT22;855;48.824;9.220;2022-08-07T13:44:18;29.00;33.50
1716;DHT22;855;48.824;9.220;2022-08-07T13:46:46;29.30;32.60
1716;DHT22;855;48.824;9.220;2022-08-07T13:49:19;29.10;32.50
1716;DHT22;855;48.824;9.220;2022-08-07T13:51:50;29.20;33.00
1716;DHT22;855;48.824;9.220;2022-08-07T13:54:20;29.40;31.80
1716;DHT22;855;48.824;9.220;2022-08-07T13:56:52;29.60;30.90
1716;DHT22;855;48.824;9.220;2022-08-07T13:59:24;29.40;30.50
1716;DHT22;855;48.824;9.220;2022-08-07T14:01:54;29.00;31.30
1716;DHT22;855;48.824;9.220;2022-08-07T14:04:24;29.10;31.30
1716;DHT22;855;48.824;9.220;2022-08-07T14:06:53;29.40;31.40
1716;DHT22;855;48.824;9.220;2022-08-07T14:09:23;29.60;30.60
1716;DHT22;855;48.824;9.220;2022-08-07T14:11:53;29.80;30.60
1716;DHT22;855;48.824;9.220;2022-08-07T14:14:25;30.00;30.40
1716;DHT22;855;48.824;9.220;2022-08-07T14:16:57;29.80;30.50
1716;DHT22;855;48.824;9.220;2022-08-07T14:19:33;29.20;31.10
1716;DHT22;855;48.824;9.220;2022-08-07T14:22:04;29.20;31.00
1716;DHT22;855;48.824;9.220;2022-08-07T14:24:35;29.10;30.90
1716;DHT22;855;48.824;9.220;2022-08-07T14:27:05;29.10;31.30
1716;DHT22;855;48.824;9.220;2022-08-07T14:29:36;29.00;31.10
1716;DHT22;855;48.824;9.220;2022-08-07T14:32:07;29.10;31.40
1716;DHT22;855;48.824;9.220;2022-08-07T14:34:38;29.20;31.40
1716;DHT22;855;48.824;9.220;2022-08-07T14:37:09;29.40;32.10
1716;DHT22;855;48.824;9.220;2022-08-07T14:39:38;29.50;31.10
1716;DHT22;855;48.824;9.220;2022-08-07T14:42:08;29.70;31.30
1716;DHT22;855;48.824;9.220;2022-08-07T14:44:37;29.70;30.80
1716;DHT22;855;48.824;9.220;2022-08-07T14:47:06;29.80;31.10
1716;DHT22;855;48.824;9.220;2022-08-07T14:49:34;29.60;31.30
1716;DHT22;855;48.824;9.220;2022-08-07T14:52:03;29.50;31.40
1716;DHT22;855;48.824;9.220;2022-08-07T14:54:33;29.50;31.50
1716;DHT22;855;48.824;9.220;2022-08-07T14:57:02;29.50;30.50
1716;DHT22;855;48.824;9.220;2022-08-07T14:59:33;29.60;30.80
1716;DHT22;855;48.824;9.220;2022-08-07T15:02:09;29.70;31.10
1716;DHT22;855;48.824;9.220;2022-08-07T15:04:39;29.70;30.90
1716;DHT22;855;48.824;9.220;2022-08-07T15:07:07;29.70;31.10
1716;DHT22;855;48.824;9.220;2022-08-07T15:09:39;29.80;30.90
1716;DHT22;855;48.824;9.220;2022-08-07T15:12:09;29.90;30.30
1716;DHT22;855;48.824;9.220;2022-08-07T15:14:46;29.90;30.40
1716;DHT22;855;48.824;9.220;2022-08-07T15:17:17;29.50;31.40
1716;DHT22;855;48.824;9.220;2022-08-07T15:19:49;29.00;32.10
1716;DHT22;855;48.824;9.220;2022-08-07T15:22:18;29.10;31.50
1716;DHT22;855;48.824;9.220;2022-08-07T15:24:49;29.20;31.80
1716;DHT22;855;48.824;9.220;2022-08-07T15:27:20;29.30;31.80
1716;DHT22;855;48.824;9.220;2022-08-07T15:29:51;29.50;31.10
1716;DHT22;855;48.824;9.220;2022-08-07T15:32:19;29.70;31.00
1716;DHT22;855;48.824;9.220;2022-08-07T15:34:47;29.70;31.10
1716;DHT22;855;48.824;9.220;2022-08-07T15:37:18;29.80;31.30
1716;DHT22;855;48.824;9.220;2022-08-07T15:39:48;29.50;31.00
1716;DHT22;855;48.824;9.220;2022-08-07T15:45:37;29.40;30.90
1716;DHT22;855;48.824;9.220;2022-08-07T15:48:12;29.60;30.50
1716;DHT22;855;48.824;9.220;2022-08-07T15:50:43;29.40;30.60
1716;DHT22;855;48.824;9.220;2022-08-07T15:53:13;29.20;31.30
1716;DHT22;855;48.824;9.220;2022-08-07T15:55:43;29.30;31.90
1716;DHT22;855;48.824;9.220;2022-08-07T15:58:13;29.40;31.00
1716;DHT22;855;48.824;9.220;2022-08-07T16:00:42;29.50;30.80
1716;DHT22;855;48.824;9.220;2022-08-07T16:03:13;29.60;30.80
1716;DHT22;855;48.824;9.220;2022-08-07T16:05:44;29.60;30.80
1716;DHT22;855;48.824;9.220;2022-08-07T16:08:14;29.50;31.90
1716;DHT22;855;48.824;9.220;2022-08-07T16:10:46;29.50;31.50
1716;DHT22;855;48.824;9.220;2022-08-07T16:13:53;29.20;32.30
1716;DHT22;855;48.824;9.220;2022-08-07T16:16:48;29.40;31.60
1716;DHT22;855;48.824;9.220;2022-08-07T16:19:41;29.40;30.90
1716;DHT22;855;48.824;9.220;2022-08-07T16:22:27;29.00;31.00
1716;DHT22;855;48.824;9.220;2022-08-07T16:25:16;29.20;31.50
1716;DHT22;855;48.824;9.220;2022-08-07T16:28:00;29.00;30.90
1716;DHT22;855;48.824;9.220;2022-08-07T16:30:34;29.00;31.10
1716;DHT22;855;48.824;9.220;2022-08-07T16:33:09;28.90;30.90
1716;DHT22;855;48.824;9.220;2022-08-07T16:35:46;29.00;30.80
1716;DHT22;855;48.824;9.220;2022-08-07T16:38:34;28.80;31.00
1716;DHT22;855;48.824;9.220;2022-08-07T16:44:39;28.70;31.10
1716;DHT22;855;48.824;9.220;2022-08-07T16:50:20;28.70;31.80
1716;DHT22;855;48.824;9.220;2022-08-07T16:53:08;28.60;31.50
1716;DHT22;855;48.824;9.220;2022-08-07T16:55:39;28.60;31.60
1716;DHT22;855;48.824;9.220;2022-08-07T16:58:21;28.70;31.40
1716;DHT22;855;48.824;9.220;2022-08-07T17:00:59;28.50;31.00
1716;DHT22;855;48.824;9.220;2022-08-07T17:03:42;28.20;31.30
1716;DHT22;855;48.824;9.220;2022-08-07T17:06:30;28.40;31.60
1716;DHT22;855;48.824;9.220;2022-08-07T17:09:08;28.30;31.10
1716;DHT22;855;48.824;9.220;2022-08-07T17:11:43;28.10;31.40